sensor_id;sensor_type;location;lat;lon;timestamp;P1;durP1;ratioP1;P2;durP2;ratioP2
85751;SDS011;76192;39.766;2.716;2024-03-17T00:01:00;52.50;;;36.50;;
85751;SDS011;76192;39.766;2.716;2024-03-17T00:03:29;24.50;;;20.10;;
85751;SDS011;76192;39.766;2.716;2024-03-17T00:05:57;19.70;;;15.80;;
85751;SDS011;76192;39.766;2.716;2024-03-17T00:08:23;22.40;;;17.20;;
85751;SDS011;76192;39.766;2.716;2024-03-17T00:10:50;19.00;;;15.90;;
85751;SDS011;76192;39.766;2.716;2024-03-17T00:13:16;37.20;;;29.30;;
85751;SDS011;76192;39.766;2.716;2024-03-17T00:15:42;45.30;;;36.40;;
85751;SDS011;76192;39.766;2.716;2024-03-17T00:18:08;25.10;;;18.10;;
85751;SDS011;76192;39.766;2.716;2024-03-17T00:20:35;22.50;;;14.50;;
85751;SDS011;76192;39.766;2.716;2024-03-17T00:23:02;14.10;;;9.20;;
85751;SDS011;76192;39.766;2.716;2024-03-17T00:25:28;13.20;;;8.70;;
85751;SDS011;76192;39.766;2.716;2024-03-17T00:27:54;16.40;;;12.30;;
85751;SDS011;76192;39.766;2.716;2024-03-17T00:30:22;16.60;;;13.30;;
85751;SDS011;76192;39.766;2.716;2024-03-17T00:32:48;17.70;;;14.40;;
85751;SDS011;76192;39.766;2.716;2024-03-17T00:35:13;19.40;;;14.90;;
85751;SDS011;76192;39.766;2.716;2024-03-17T00:37:46;18.80;;;13.70;;
85751;SDS011;76192;39.766;2.716;2024-03-17T00:40:15;21.10;;;14.40;;
85751;SDS011;76192;39.766;2.716;2024-03-17T00:42:42;18.30;;;14.00;;
85751;SDS011;76192;39.766;2.716;2024-03-17T00:45:10;19.00;;;13.40;;
85751;SDS011;76192;39.766;2.716;2024-03-17T00:47:36;20.20;;;15.90;;
85751;SDS011;76192;39.766;2.716;2024-03-17T00:50:03;23.30;;;16.90;;
85751;SDS011;76192;39.766;2.716;2024-03-17T00:52:31;23.60;;;16.70;;
85751;SDS011;76192;39.766;2.716;2024-03-17T00:54:57;22.50;;;16.90;;
85751;SDS011;76192;39.766;2.716;2024-03-17T00:57:23;22.70;;;17.10;;
85751;SDS011;76192;39.766;2.716;2024-03-17T00:59:49;12.50;;;9.40;;
85751;SDS011;76192;39.766;2.716;2024-03-17T01:02:15;14.70;;;11.20;;
85751;SDS011;76192;39.766;2.716;2024-03-17T01:04:44;17.90;;;11.80;;
85751;SDS011;76192;39.766;2.716;2024-03-17T01:07:10;16.20;;;11.80;;
85751;SDS011;76192;39.766;2.716;2024-03-17T01:09:36;14.10;;;9.90;;
85751;SDS011;76192;39.766;2.716;2024-03-17T01:12:02;13.30;;;9.10;;
85751;SDS011;76192;39.766;2.716;2024-03-17T01:14:28;13.40;;;9.70;;
85751;SDS011;76192;39.766;2.716;2024-03-17T01:16:55;10.90;;;7.40;;
85751;SDS011;76192;39.766;2.716;2024-03-17T01:19:21;12.10;;;8.50;;
85751;SDS011;76192;39.766;2.716;2024-03-17T01:21:47;9.30;;;5.90;;
85751;SDS011;76192;39.766;2.716;2024-03-17T01:24:13;11.10;;;7.00;;
85751;SDS011;76192;39.766;2.716;2024-03-17T01:26:38;9.50;;;5.90;;
85751;SDS011;76192;39.766;2.716;2024-03-17T01:29:04;8.60;;;5.30;;
85751;SDS011;76192;39.766;2.716;2024-03-17T01:31:30;8.20;;;4.90;;
85751;SDS011;76192;39.766;2.716;2024-03-17T01:33:55;8.00;;;4.80;;
85751;SDS011;76192;39.766;2.716;2024-03-17T01:36:21;5.10;;;4.20;;
85751;SDS011;76192;39.766;2.716;2024-03-17T01:38:47;8.00;;;3.90;;
85751;SDS011;76192;39.766;2.716;2024-03-17T01:41:12;4.20;;;2.90;;
85751;SDS011;76192;39.766;2.716;2024-03-17T01:43:39;5.10;;;3.30;;
85751;SDS011;76192;39.766;2.716;2024-03-17T01:46:05;5.50;;;3.60;;
85751;SDS011;76192;39.766;2.716;2024-03-17T01:48:35;6.20;;;4.00;;
85751;SDS011;76192;39.766;2.716;2024-03-17T01:51:02;7.30;;;4.50;;
85751;SDS011;76192;39.766;2.716;2024-03-17T01:53:28;5.40;;;4.50;;
85751;SDS011;76192;39.766;2.716;2024-03-17T01:55:55;5.60;;;4.30;;
85751;SDS011;76192;39.766;2.716;2024-03-17T01:58:24;3.50;;;3.10;;
85751;SDS011;76192;39.766;2.716;2024-03-17T02:00:50;6.80;;;4.30;;
85751;SDS011;76192;39.766;2.716;2024-03-17T02:03:17;5.20;;;3.80;;
85751;SDS011;76192;39.766;2.716;2024-03-17T02:05:43;5.90;;;4.20;;
85751;SDS011;76192;39.766;2.716;2024-03-17T02:08:10;8.80;;;6.00;;
85751;SDS011;76192;39.766;2.716;2024-03-17T02:10:36;7.60;;;5.60;;
85751;SDS011;76192;39.766;2.716;2024-03-17T02:13:03;10.70;;;6.90;;
85751;SDS011;76192;39.766;2.716;2024-03-17T02:15:30;8.20;;;7.00;;
85751;SDS011;76192;39.766;2.716;2024-03-17T02:17:57;8.10;;;5.40;;
85751;SDS011;76192;39.766;2.716;2024-03-17T02:20:22;7.50;;;5.20;;
85751;SDS011;76192;39.766;2.716;2024-03-17T02:23:08;6.80;;;5.30;;
85751;SDS011;76192;39.766;2.716;2024-03-17T02:25:33;5.70;;;4.60;;
85751;SDS011;76192;39.766;2.716;2024-03-17T02:27:59;5.30;;;4.40;;
85751;SDS011;76192;39.766;2.716;2024-03-17T02:30:26;8.30;;;4.90;;
85751;SDS011;76192;39.766;2.716;2024-03-17T02:32:52;7.30;;;3.80;;
85751;SDS011;76192;39.766;2.716;2024-03-17T02:35:18;4.10;;;3.40;;
85751;SDS011;76192;39.766;2.716;2024-03-17T02:37:43;4.90;;;4.30;;
85751;SDS011;76192;39.766;2.716;2024-03-17T02:40:09;6.30;;;4.10;;
85751;SDS011;76192;39.766;2.716;2024-03-17T02:42:35;6.40;;;3.70;;
85751;SDS011;76192;39.766;2.716;2024-03-17T02:45:03;6.80;;;3.10;;
85751;SDS011;76192;39.766;2.716;2024-03-17T02:47:31;6.70;;;4.10;;
85751;SDS011;76192;39.766;2.716;2024-03-17T02:49:57;5.30;;;3.90;;
85751;SDS011;76192;39.766;2.716;2024-03-17T02:52:23;5.40;;;4.00;;
85751;SDS011;76192;39.766;2.716;2024-03-17T02:54:49;5.80;;;4.40;;
85751;SDS011;76192;39.766;2.716;2024-03-17T02:57:15;4.90;;;3.70;;
85751;SDS011;76192;39.766;2.716;2024-03-17T02:59:41;6.40;;;3.30;;
85751;SDS011;76192;39.766;2.716;2024-03-17T03:02:08;7.10;;;4.10;;
85751;SDS011;76192;39.766;2.716;2024-03-17T03:04:34;6.00;;;4.00;;
85751;SDS011;76192;39.766;2.716;2024-03-17T03:07:00;5.00;;;3.70;;
85751;SDS011;76192;39.766;2.716;2024-03-17T03:09:25;5.70;;;4.10;;
85751;SDS011;76192;39.766;2.716;2024-03-17T03:11:56;5.90;;;3.80;;
85751;SDS011;76192;39.766;2.716;2024-03-17T03:14:23;4.50;;;3.50;;
85751;SDS011;76192;39.766;2.716;2024-03-17T03:16:49;5.60;;;4.40;;
85751;SDS011;76192;39.766;2.716;2024-03-17T03:19:15;4.90;;;3.20;;
85751;SDS011;76192;39.766;2.716;2024-03-17T03:21:41;4.90;;;3.50;;
85751;SDS011;76192;39.766;2.716;2024-03-17T03:24:06;4.80;;;2.90;;
85751;SDS011;76192;39.766;2.716;2024-03-17T03:26:32;2.80;;;2.30;;
85751;SDS011;76192;39.766;2.716;2024-03-17T03:28:58;3.90;;;2.60;;
85751;SDS011;76192;39.766;2.716;2024-03-17T03:31:24;2.60;;;2.20;;
85751;SDS011;76192;39.766;2.716;2024-03-17T03:33:49;3.90;;;2.60;;
85751;SDS011;76192;39.766;2.716;2024-03-17T03:36:15;3.90;;;2.40;;
85751;SDS011;76192;39.766;2.716;2024-03-17T03:38:43;4.60;;;3.00;;
85751;SDS011;76192;39.766;2.716;2024-03-17T03:41:10;5.10;;;2.90;;
85751;SDS011;76192;39.766;2.716;2024-03-17T03:43:38;5.70;;;3.20;;
85751;SDS011;76192;39.766;2.716;2024-03-17T03:46:04;6.10;;;3.60;;
85751;SDS011;76192;39.766;2.716;2024-03-17T03:48:31;6.10;;;3.10;;
85751;SDS011;76192;39.766;2.716;2024-03-17T03:50:57;4.40;;;2.90;;
85751;SDS011;76192;39.766;2.716;2024-03-17T03:53:24;4.60;;;2.90;;
85751;SDS011;76192;39.766;2.716;2024-03-17T03:55:49;3.70;;;2.70;;
85751;SDS011;76192;39.766;2.716;2024-03-17T03:58:15;4.00;;;2.90;;
85751;SDS011;76192;39.766;2.716;2024-03-17T04:00:41;3.60;;;2.90;;
85751;SDS011;76192;39.766;2.716;2024-03-17T04:03:07;3.90;;;2.80;;
85751;SDS011;76192;39.766;2.716;2024-03-17T04:05:32;6.70;;;3.30;;
85751;SDS011;76192;39.766;2.716;2024-03-17T04:08:00;7.60;;;3.30;;
85751;SDS011;76192;39.766;2.716;2024-03-17T04:10:25;4.00;;;2.70;;
85751;SDS011;76192;39.766;2.716;2024-03-17T04:12:51;3.50;;;2.70;;
85751;SDS011;76192;39.766;2.716;2024-03-17T04:15:17;4.80;;;2.90;;
85751;SDS011;76192;39.766;2.716;2024-03-17T04:17:44;8.40;;;3.30;;
85751;SDS011;76192;39.766;2.716;2024-03-17T04:20:10;6.80;;;3.40;;
85751;SDS011;76192;39.766;2.716;2024-03-17T04:22:38;6.40;;;4.10;;
85751;SDS011;76192;39.766;2.716;2024-03-17T04:25:11;6.70;;;3.70;;
85751;SDS011;76192;39.766;2.716;2024-03-17T04:27:38;5.90;;;4.70;;
85751;SDS011;76192;39.766;2.716;2024-03-17T04:30:04;6.10;;;4.00;;
85751;SDS011;76192;39.766;2.716;2024-03-17T04:32:31;5.80;;;4.10;;
85751;SDS011;76192;39.766;2.716;2024-03-17T04:34:57;5.50;;;4.20;;
85751;SDS011;76192;39.766;2.716;2024-03-17T04:37:23;5.50;;;4.20;;
85751;SDS011;76192;39.766;2.716;2024-03-17T04:39:49;5.50;;;3.70;;
85751;SDS011;76192;39.766;2.716;2024-03-17T04:42:16;7.00;;;3.80;;
85751;SDS011;76192;39.766;2.716;2024-03-17T04:44:45;5.10;;;3.10;;
85751;SDS011;76192;39.766;2.716;2024-03-17T04:47:12;4.90;;;2.80;;
85751;SDS011;76192;39.766;2.716;2024-03-17T04:49:41;3.70;;;3.00;;
85751;SDS011;76192;39.766;2.716;2024-03-17T04:52:08;4.30;;;3.00;;
85751;SDS011;76192;39.766;2.716;2024-03-17T04:54:35;4.80;;;2.90;;
85751;SDS011;76192;39.766;2.716;2024-03-17T04:57:01;5.70;;;2.90;;
85751;SDS011;76192;39.766;2.716;2024-03-17T04:59:27;4.50;;;2.70;;
85751;SDS011;76192;39.766;2.716;2024-03-17T05:01:54;4.60;;;2.80;;
85751;SDS011;76192;39.766;2.716;2024-03-17T05:04:19;4.20;;;3.60;;
85751;SDS011;76192;39.766;2.716;2024-03-17T05:06:45;5.00;;;3.50;;
85751;SDS011;76192;39.766;2.716;2024-03-17T05:09:14;4.60;;;3.30;;
85751;SDS011;76192;39.766;2.716;2024-03-17T05:14:08;4.00;;;3.40;;
85751;SDS011;76192;39.766;2.716;2024-03-17T05:16:34;5.50;;;3.00;;
85751;SDS011;76192;39.766;2.716;2024-03-17T05:19:00;3.60;;;3.00;;
85751;SDS011;76192;39.766;2.716;2024-03-17T05:21:26;6.00;;;3.30;;
85751;SDS011;76192;39.766;2.716;2024-03-17T05:23:55;5.50;;;3.10;;
85751;SDS011;76192;39.766;2.716;2024-03-17T05:26:26;5.00;;;2.90;;
85751;SDS011;76192;39.766;2.716;2024-03-17T05:28:52;8.10;;;5.00;;
85751;SDS011;76192;39.766;2.716;2024-03-17T05:31:18;5.90;;;4.60;;
85751;SDS011;76192;39.766;2.716;2024-03-17T05:33:46;7.30;;;4.40;;
85751;SDS011;76192;39.766;2.716;2024-03-17T05:36:12;6.90;;;4.20;;
85751;SDS011;76192;39.766;2.716;2024-03-17T05:38:38;8.00;;;4.70;;
85751;SDS011;76192;39.766;2.716;2024-03-17T05:41:07;6.60;;;4.30;;
85751;SDS011;76192;39.766;2.716;2024-03-17T05:43:37;9.20;;;5.50;;
85751;SDS011;76192;39.766;2.716;2024-03-17T05:46:07;7.00;;;5.10;;
85751;SDS011;76192;39.766;2.716;2024-03-17T05:48:38;9.20;;;4.60;;
85751;SDS011;76192;39.766;2.716;2024-03-17T05:51:09;11.00;;;5.30;;
85751;SDS011;76192;39.766;2.716;2024-03-17T05:53:36;8.30;;;4.60;;
85751;SDS011;76192;39.766;2.716;2024-03-17T05:56:05;6.60;;;4.70;;
85751;SDS011;76192;39.766;2.716;2024-03-17T05:58:36;34.60;;;12.00;;
85751;SDS011;76192;39.766;2.716;2024-03-17T06:01:02;30.40;;;9.10;;
85751;SDS011;76192;39.766;2.716;2024-03-17T06:03:28;7.70;;;4.50;;
85751;SDS011;76192;39.766;2.716;2024-03-17T06:05:54;7.90;;;3.70;;
85751;SDS011;76192;39.766;2.716;2024-03-17T06:08:20;5.70;;;4.80;;
85751;SDS011;76192;39.766;2.716;2024-03-17T06:10:47;9.70;;;6.60;;
85751;SDS011;76192;39.766;2.716;2024-03-17T06:13:14;6.30;;;4.10;;
85751;SDS011;76192;39.766;2.716;2024-03-17T06:15:43;6.00;;;3.60;;
85751;SDS011;76192;39.766;2.716;2024-03-17T06:18:11;7.30;;;3.80;;
85751;SDS011;76192;39.766;2.716;2024-03-17T06:20:42;3.90;;;3.50;;
85751;SDS011;76192;39.766;2.716;2024-03-17T06:23:12;4.60;;;3.40;;
85751;SDS011;76192;39.766;2.716;2024-03-17T06:28:04;6.00;;;3.90;;
85751;SDS011;76192;39.766;2.716;2024-03-17T06:30:30;4.90;;;4.30;;
85751;SDS011;76192;39.766;2.716;2024-03-17T06:32:56;6.20;;;4.20;;
85751;SDS011;76192;39.766;2.716;2024-03-17T06:35:22;6.70;;;4.60;;
85751;SDS011;76192;39.766;2.716;2024-03-17T06:37:51;5.90;;;5.20;;
85751;SDS011;76192;39.766;2.716;2024-03-17T06:40:17;7.60;;;4.70;;
85751;SDS011;76192;39.766;2.716;2024-03-17T06:42:43;5.60;;;4.10;;
85751;SDS011;76192;39.766;2.716;2024-03-17T06:45:09;7.80;;;5.60;;
85751;SDS011;76192;39.766;2.716;2024-03-17T06:47:38;7.80;;;5.70;;
85751;SDS011;76192;39.766;2.716;2024-03-17T06:50:05;5.60;;;5.00;;
85751;SDS011;76192;39.766;2.716;2024-03-17T06:52:35;8.60;;;5.70;;
85751;SDS011;76192;39.766;2.716;2024-03-17T06:55:01;6.10;;;4.80;;
85751;SDS011;76192;39.766;2.716;2024-03-17T06:57:26;5.90;;;4.40;;
85751;SDS011;76192;39.766;2.716;2024-03-17T06:59:52;8.80;;;5.20;;
85751;SDS011;76192;39.766;2.716;2024-03-17T07:02:18;9.80;;;5.10;;
85751;SDS011;76192;39.766;2.716;2024-03-17T07:04:45;8.10;;;5.10;;
85751;SDS011;76192;39.766;2.716;2024-03-17T07:07:11;6.70;;;5.20;;
85751;SDS011;76192;39.766;2.716;2024-03-17T07:09:38;7.20;;;4.60;;
85751;SDS011;76192;39.766;2.716;2024-03-17T07:12:10;8.00;;;4.70;;
85751;SDS011;76192;39.766;2.716;2024-03-17T07:14:36;8.80;;;4.80;;
85751;SDS011;76192;39.766;2.716;2024-03-17T07:17:02;7.70;;;5.10;;
85751;SDS011;76192;39.766;2.716;2024-03-17T07:19:29;9.20;;;5.80;;
85751;SDS011;76192;39.766;2.716;2024-03-17T07:21:56;8.90;;;6.00;;
85751;SDS011;76192;39.766;2.716;2024-03-17T07:24:22;7.80;;;5.00;;
85751;SDS011;76192;39.766;2.716;2024-03-17T07:26:48;7.20;;;5.00;;
85751;SDS011;76192;39.766;2.716;2024-03-17T07:29:15;8.80;;;5.00;;
85751;SDS011;76192;39.766;2.716;2024-03-17T07:31:41;8.40;;;4.10;;
85751;SDS011;76192;39.766;2.716;2024-03-17T07:34:08;7.60;;;4.20;;
85751;SDS011;76192;39.766;2.716;2024-03-17T07:36:34;6.60;;;4.60;;
85751;SDS011;76192;39.766;2.716;2024-03-17T07:38:59;7.60;;;4.40;;
85751;SDS011;76192;39.766;2.716;2024-03-17T07:41:25;4.80;;;3.30;;
85751;SDS011;76192;39.766;2.716;2024-03-17T07:43:50;8.40;;;4.00;;
85751;SDS011;76192;39.766;2.716;2024-03-17T07:46:16;7.00;;;3.90;;
85751;SDS011;76192;39.766;2.716;2024-03-17T07:48:42;6.80;;;4.10;;
85751;SDS011;76192;39.766;2.716;2024-03-17T07:53:42;20.90;;;11.60;;
85751;SDS011;76192;39.766;2.716;2024-03-17T07:56:17;29.70;;;17.20;;
85751;SDS011;76192;39.766;2.716;2024-03-17T07:58:44;26.50;;;17.50;;
85751;SDS011;76192;39.766;2.716;2024-03-17T08:01:14;22.60;;;15.50;;
85751;SDS011;76192;39.766;2.716;2024-03-17T08:03:41;23.00;;;14.30;;
85751;SDS011;76192;39.766;2.716;2024-03-17T08:06:10;24.50;;;15.90;;
85751;SDS011;76192;39.766;2.716;2024-03-17T08:08:39;25.90;;;14.00;;
85751;SDS011;76192;39.766;2.716;2024-03-17T08:11:05;28.50;;;17.80;;
85751;SDS011;76192;39.766;2.716;2024-03-17T08:13:30;22.00;;;13.90;;
85751;SDS011;76192;39.766;2.716;2024-03-17T08:16:02;16.90;;;10.60;;
85751;SDS011;76192;39.766;2.716;2024-03-17T08:18:33;13.50;;;10.10;;
85751;SDS011;76192;39.766;2.716;2024-03-17T08:21:02;15.70;;;9.30;;
85751;SDS011;76192;39.766;2.716;2024-03-17T08:23:29;12.70;;;8.10;;
85751;SDS011;76192;39.766;2.716;2024-03-17T08:25:56;11.90;;;7.90;;
85751;SDS011;76192;39.766;2.716;2024-03-17T08:28:24;11.10;;;7.70;;
85751;SDS011;76192;39.766;2.716;2024-03-17T08:30:52;11.30;;;6.70;;
85751;SDS011;76192;39.766;2.716;2024-03-17T08:33:18;8.70;;;6.00;;
85751;SDS011;76192;39.766;2.716;2024-03-17T08:35:52;9.90;;;7.20;;
85751;SDS011;76192;39.766;2.716;2024-03-17T08:38:21;10.80;;;7.90;;
85751;SDS011;76192;39.766;2.716;2024-03-17T08:40:48;13.90;;;10.30;;
85751;SDS011;76192;39.766;2.716;2024-03-17T08:43:15;17.90;;;12.20;;
85751;SDS011;76192;39.766;2.716;2024-03-17T08:45:40;20.80;;;12.70;;
85751;SDS011;76192;39.766;2.716;2024-03-17T08:48:06;19.10;;;14.20;;
85751;SDS011;76192;39.766;2.716;2024-03-17T08:50:32;17.20;;;12.30;;
85751;SDS011;76192;39.766;2.716;2024-03-17T08:52:59;19.60;;;12.50;;
85751;SDS011;76192;39.766;2.716;2024-03-17T08:55:25;16.80;;;11.90;;
85751;SDS011;76192;39.766;2.716;2024-03-17T08:57:50;16.40;;;9.80;;
85751;SDS011;76192;39.766;2.716;2024-03-17T09:00:16;15.10;;;9.50;;
85751;SDS011;76192;39.766;2.716;2024-03-17T09:02:42;13.30;;;10.00;;
85751;SDS011;76192;39.766;2.716;2024-03-17T09:05:07;10.80;;;8.70;;
85751;SDS011;76192;39.766;2.716;2024-03-17T09:07:33;12.70;;;8.90;;
85751;SDS011;76192;39.766;2.716;2024-03-17T09:09:59;8.70;;;6.70;;
85751;SDS011;76192;39.766;2.716;2024-03-17T09:12:25;9.20;;;5.90;;
85751;SDS011;76192;39.766;2.716;2024-03-17T09:14:52;8.90;;;5.20;;
85751;SDS011;76192;39.766;2.716;2024-03-17T09:17:18;5.10;;;4.20;;
85751;SDS011;76192;39.766;2.716;2024-03-17T09:19:46;6.70;;;4.20;;
85751;SDS011;76192;39.766;2.716;2024-03-17T09:22:13;6.30;;;4.20;;
85751;SDS011;76192;39.766;2.716;2024-03-17T09:24:38;6.10;;;4.30;;
85751;SDS011;76192;39.766;2.716;2024-03-17T09:27:06;5.70;;;4.00;;
85751;SDS011;76192;39.766;2.716;2024-03-17T09:29:31;7.00;;;3.60;;
85751;SDS011;76192;39.766;2.716;2024-03-17T09:31:58;5.50;;;4.10;;
85751;SDS011;76192;39.766;2.716;2024-03-17T09:34:24;5.00;;;3.70;;
85751;SDS011;76192;39.766;2.716;2024-03-17T09:36:49;5.90;;;3.50;;
85751;SDS011;76192;39.766;2.716;2024-03-17T09:39:15;6.60;;;3.70;;
85751;SDS011;76192;39.766;2.716;2024-03-17T09:41:41;4.10;;;3.30;;
85751;SDS011;76192;39.766;2.716;2024-03-17T09:44:10;6.50;;;3.60;;
85751;SDS011;76192;39.766;2.716;2024-03-17T09:46:38;5.40;;;3.50;;
85751;SDS011;76192;39.766;2.716;2024-03-17T09:49:04;5.80;;;3.80;;
85751;SDS011;76192;39.766;2.716;2024-03-17T09:51:34;4.90;;;3.50;;
85751;SDS011;76192;39.766;2.716;2024-03-17T09:54:05;7.60;;;4.20;;
85751;SDS011;76192;39.766;2.716;2024-03-17T09:56:44;5.90;;;3.10;;
85751;SDS011;76192;39.766;2.716;2024-03-17T09:59:11;5.10;;;3.50;;
85751;SDS011;76192;39.766;2.716;2024-03-17T10:01:37;5.40;;;3.50;;
85751;SDS011;76192;39.766;2.716;2024-03-17T10:04:03;5.40;;;3.00;;
85751;SDS011;76192;39.766;2.716;2024-03-17T10:06:29;6.80;;;3.30;;
85751;SDS011;76192;39.766;2.716;2024-03-17T10:08:57;6.00;;;3.10;;
85751;SDS011;76192;39.766;2.716;2024-03-17T10:11:24;5.50;;;3.10;;
85751;SDS011;76192;39.766;2.716;2024-03-17T10:14:16;4.30;;;2.80;;
85751;SDS011;76192;39.766;2.716;2024-03-17T10:16:43;4.50;;;2.80;;
85751;SDS011;76192;39.766;2.716;2024-03-17T10:19:16;5.20;;;3.20;;
85751;SDS011;76192;39.766;2.716;2024-03-17T10:21:47;6.30;;;3.70;;
85751;SDS011;76192;39.766;2.716;2024-03-17T10:24:23;4.20;;;3.20;;
85751;SDS011;76192;39.766;2.716;2024-03-17T10:26:56;4.50;;;3.00;;
85751;SDS011;76192;39.766;2.716;2024-03-17T10:32:05;8.40;;;4.00;;
85751;SDS011;76192;39.766;2.716;2024-03-17T10:34:38;8.60;;;3.90;;
85751;SDS011;76192;39.766;2.716;2024-03-17T10:39:38;4.50;;;3.20;;
85751;SDS011;76192;39.766;2.716;2024-03-17T10:42:06;3.80;;;3.40;;
85751;SDS011;76192;39.766;2.716;2024-03-17T10:44:34;9.70;;;4.70;;
85751;SDS011;76192;39.766;2.716;2024-03-17T10:47:02;7.90;;;3.70;;
85751;SDS011;76192;39.766;2.716;2024-03-17T10:49:34;5.90;;;3.80;;
85751;SDS011;76192;39.766;2.716;2024-03-17T10:52:06;5.70;;;4.70;;
85751;SDS011;76192;39.766;2.716;2024-03-17T10:54:34;8.90;;;5.00;;
85751;SDS011;76192;39.766;2.716;2024-03-17T10:59:41;8.00;;;3.30;;
85751;SDS011;76192;39.766;2.716;2024-03-17T11:02:20;7.10;;;4.20;;
85751;SDS011;76192;39.766;2.716;2024-03-17T11:04:57;6.80;;;5.00;;
85751;SDS011;76192;39.766;2.716;2024-03-17T11:07:25;5.40;;;3.50;;
85751;SDS011;76192;39.766;2.716;2024-03-17T11:09:53;5.10;;;3.90;;
85751;SDS011;76192;39.766;2.716;2024-03-17T11:17:45;8.30;;;5.40;;
85751;SDS011;76192;39.766;2.716;2024-03-17T11:20:23;6.50;;;5.40;;
85751;SDS011;76192;39.766;2.716;2024-03-17T11:22:51;6.00;;;4.60;;
85751;SDS011;76192;39.766;2.716;2024-03-17T11:27:59;6.40;;;4.80;;
85751;SDS011;76192;39.766;2.716;2024-03-17T11:41:39;6.70;;;4.60;;
85751;SDS011;76192;39.766;2.716;2024-03-17T11:46:41;8.10;;;4.00;;
85751;SDS011;76192;39.766;2.716;2024-03-17T11:51:50;5.80;;;3.30;;
85751;SDS011;76192;39.766;2.716;2024-03-17T11:54:17;5.40;;;3.80;;
85751;SDS011;76192;39.766;2.716;2024-03-17T11:56:48;5.30;;;3.10;;
85751;SDS011;76192;39.766;2.716;2024-03-17T11:59:16;9.00;;;5.20;;
85751;SDS011;76192;39.766;2.716;2024-03-17T12:01:45;5.60;;;4.10;;
85751;SDS011;76192;39.766;2.716;2024-03-17T12:04:16;12.90;;;5.50;;
85751;SDS011;76192;39.766;2.716;2024-03-17T12:06:46;7.50;;;4.90;;
85751;SDS011;76192;39.766;2.716;2024-03-17T12:09:22;6.50;;;4.10;;
85751;SDS011;76192;39.766;2.716;2024-03-17T12:12:06;6.80;;;4.90;;
85751;SDS011;76192;39.766;2.716;2024-03-17T12:14:38;5.90;;;4.60;;
85751;SDS011;76192;39.766;2.716;2024-03-17T12:17:08;11.90;;;7.00;;
85751;SDS011;76192;39.766;2.716;2024-03-17T12:19:35;9.60;;;5.70;;
85751;SDS011;76192;39.766;2.716;2024-03-17T12:22:03;6.10;;;4.40;;
85751;SDS011;76192;39.766;2.716;2024-03-17T12:24:31;6.80;;;4.50;;
85751;SDS011;76192;39.766;2.716;2024-03-17T12:26:58;6.50;;;4.20;;
85751;SDS011;76192;39.766;2.716;2024-03-17T12:32:01;6.50;;;4.50;;
85751;SDS011;76192;39.766;2.716;2024-03-17T12:34:28;6.80;;;4.60;;
85751;SDS011;76192;39.766;2.716;2024-03-17T12:36:56;4.60;;;3.70;;
85751;SDS011;76192;39.766;2.716;2024-03-17T12:39:29;7.90;;;5.20;;
85751;SDS011;76192;39.766;2.716;2024-03-17T12:42:09;4.60;;;3.60;;
85751;SDS011;76192;39.766;2.716;2024-03-17T12:44:38;4.50;;;3.50;;
85751;SDS011;76192;39.766;2.716;2024-03-17T12:47:16;5.60;;;2.90;;
85751;SDS011;76192;39.766;2.716;2024-03-17T12:49:46;4.70;;;3.10;;
85751;SDS011;76192;39.766;2.716;2024-03-17T12:52:31;3.80;;;3.00;;
85751;SDS011;76192;39.766;2.716;2024-03-17T12:55:04;4.90;;;3.20;;
85751;SDS011;76192;39.766;2.716;2024-03-17T12:57:50;6.30;;;4.30;;
85751;SDS011;76192;39.766;2.716;2024-03-17T13:00:44;6.30;;;3.60;;
85751;SDS011;76192;39.766;2.716;2024-03-17T13:03:21;5.50;;;4.40;;
85751;SDS011;76192;39.766;2.716;2024-03-17T13:05:52;5.60;;;3.70;;
85751;SDS011;76192;39.766;2.716;2024-03-17T13:08:17;5.40;;;3.70;;
85751;SDS011;76192;39.766;2.716;2024-03-17T13:10:44;5.90;;;3.50;;
85751;SDS011;76192;39.766;2.716;2024-03-17T13:13:10;5.30;;;3.50;;
85751;SDS011;76192;39.766;2.716;2024-03-17T13:15:40;5.20;;;3.20;;
85751;SDS011;76192;39.766;2.716;2024-03-17T13:18:07;6.00;;;4.00;;
85751;SDS011;76192;39.766;2.716;2024-03-17T13:20:33;3.80;;;2.90;;
85751;SDS011;76192;39.766;2.716;2024-03-17T13:22:59;4.10;;;3.70;;
85751;SDS011;76192;39.766;2.716;2024-03-17T13:25:26;4.10;;;3.10;;
85751;SDS011;76192;39.766;2.716;2024-03-17T13:27:59;9.50;;;4.40;;
85751;SDS011;76192;39.766;2.716;2024-03-17T13:30:26;5.20;;;3.50;;
85751;SDS011;76192;39.766;2.716;2024-03-17T13:32:54;6.30;;;4.10;;
85751;SDS011;76192;39.766;2.716;2024-03-17T13:35:23;4.80;;;3.90;;
85751;SDS011;76192;39.766;2.716;2024-03-17T13:37:51;6.60;;;5.10;;
85751;SDS011;76192;39.766;2.716;2024-03-17T13:40:19;6.70;;;4.70;;
85751;SDS011;76192;39.766;2.716;2024-03-17T13:42:46;4.90;;;3.70;;
85751;SDS011;76192;39.766;2.716;2024-03-17T13:45:13;6.10;;;4.10;;
85751;SDS011;76192;39.766;2.716;2024-03-17T13:47:45;6.80;;;4.20;;
85751;SDS011;76192;39.766;2.716;2024-03-17T13:50:14;5.50;;;3.60;;
85751;SDS011;76192;39.766;2.716;2024-03-17T13:52:40;5.70;;;2.90;;
85751;SDS011;76192;39.766;2.716;2024-03-17T13:55:06;5.20;;;3.20;;
85751;SDS011;76192;39.766;2.716;2024-03-17T13:57:39;4.90;;;3.70;;
85751;SDS011;76192;39.766;2.716;2024-03-17T14:00:05;4.20;;;3.50;;
85751;SDS011;76192;39.766;2.716;2024-03-17T14:02:33;6.00;;;3.70;;
85751;SDS011;76192;39.766;2.716;2024-03-17T14:04:58;5.90;;;3.50;;
85751;SDS011;76192;39.766;2.716;2024-03-17T14:07:24;6.00;;;4.20;;
85751;SDS011;76192;39.766;2.716;2024-03-17T14:09:51;6.20;;;3.40;;
85751;SDS011;76192;39.766;2.716;2024-03-17T14:12:17;7.50;;;5.80;;
85751;SDS011;76192;39.766;2.716;2024-03-17T14:14:42;4.50;;;3.90;;
85751;SDS011;76192;39.766;2.716;2024-03-17T14:17:10;5.70;;;4.00;;
85751;SDS011;76192;39.766;2.716;2024-03-17T14:19:36;5.90;;;3.60;;
85751;SDS011;76192;39.766;2.716;2024-03-17T14:22:02;4.90;;;2.80;;
85751;SDS011;76192;39.766;2.716;2024-03-17T14:24:27;4.70;;;2.70;;
85751;SDS011;76192;39.766;2.716;2024-03-17T14:26:53;5.70;;;2.80;;
85751;SDS011;76192;39.766;2.716;2024-03-17T14:29:19;4.80;;;2.80;;
85751;SDS011;76192;39.766;2.716;2024-03-17T14:31:44;4.90;;;3.20;;
85751;SDS011;76192;39.766;2.716;2024-03-17T14:34:10;4.80;;;3.30;;
85751;SDS011;76192;39.766;2.716;2024-03-17T14:36:36;3.90;;;2.50;;
85751;SDS011;76192;39.766;2.716;2024-03-17T14:39:03;6.10;;;3.40;;
85751;SDS011;76192;39.766;2.716;2024-03-17T14:41:29;5.30;;;3.00;;
85751;SDS011;76192;39.766;2.716;2024-03-17T14:43:55;4.20;;;2.60;;
85751;SDS011;76192;39.766;2.716;2024-03-17T14:46:25;4.90;;;2.70;;
85751;SDS011;76192;39.766;2.716;2024-03-17T14:48:52;4.90;;;3.00;;
85751;SDS011;76192;39.766;2.716;2024-03-17T14:51:19;4.00;;;2.70;;
85751;SDS011;76192;39.766;2.716;2024-03-17T14:53:48;4.00;;;2.50;;
85751;SDS011;76192;39.766;2.716;2024-03-17T14:56:19;3.90;;;3.10;;
85751;SDS011;76192;39.766;2.716;2024-03-17T14:58:46;5.10;;;2.50;;
85751;SDS011;76192;39.766;2.716;2024-03-17T15:01:12;3.70;;;3.00;;
85751;SDS011;76192;39.766;2.716;2024-03-17T15:03:39;4.60;;;3.20;;
85751;SDS011;76192;39.766;2.716;2024-03-17T15:06:11;3.80;;;2.50;;
85751;SDS011;76192;39.766;2.716;2024-03-17T15:08:41;4.40;;;2.80;;
85751;SDS011;76192;39.766;2.716;2024-03-17T15:11:07;3.50;;;3.00;;
85751;SDS011;76192;39.766;2.716;2024-03-17T15:13:34;6.10;;;3.70;;
85751;SDS011;76192;39.766;2.716;2024-03-17T15:16:00;4.60;;;3.60;;
85751;SDS011;76192;39.766;2.716;2024-03-17T15:18:29;6.50;;;3.60;;
85751;SDS011;76192;39.766;2.716;2024-03-17T15:20:56;5.00;;;3.90;;
85751;SDS011;76192;39.766;2.716;2024-03-17T15:23:21;3.60;;;2.20;;
85751;SDS011;76192;39.766;2.716;2024-03-17T15:25:47;3.60;;;2.90;;
85751;SDS011;76192;39.766;2.716;2024-03-17T15:28:13;3.70;;;2.90;;